Time;durP1;ratioP1;P1;durP2;ratioP2;P2;SDS_P1;SDS_P2;PMS_P1;PMS_P2;Temp;Humidity;BMP_temperature;BMP_pressure;BME280_temperature;BME280_humidity;BME280_pressure;Samples;Min_cycle;Max_cycle;Signal;HPM_P1;HPM_P2
2023/03/23 00:00:53;;;;;;;6.70;1.60;;;;;;;;;;4961540;28;92076;-77
2023/03/23 00:03:20;;;;;;;6.20;1.67;;;;;;;;;;4961242;28;91957;-78
2023/03/23 00:05:50;;;;;;;6.78;1.75;;;;;;;;;;4978757;28;92732;-78
2023/03/23 00:08:22;;;;;;;7.45;1.70;;;;;;;;;;4961688;28;95719;-78
2023/03/23 00:10:48;;;;;;;5.18;1.40;;;;;;;;;;4993146;28;94605;-77
2023/03/23 00:13:19;;;;;;;3.83;1.65;;;;;;;;;;4975969;28;97027;-78
2023/03/23 00:15:44;;;;;;;4.00;1.70;;;;;;;;;;4943675;28;93141;-78
2023/03/23 00:18:20;;;;;;;3.53;1.50;;;;;;;;;;4959142;28;92868;-78
2023/03/23 00:20:48;;;;;;;4.78;1.50;;;;;;;;;;4991079;28;94920;-78
2023/03/23 00:23:18;;;;;;;6.93;1.50;;;;;;;;;;4977284;28;92526;-77
2023/03/23 00:25:47;;;;;;;3.58;1.50;;;;;;;;;;4959110;28;95281;-77
2023/03/23 00:28:14;;;;;;;5.97;1.60;;;;;;;;;;4960496;28;94142;-78
2023/03/23 00:30:41;;;;;;;5.65;1.60;;;;;;;;;;4976968;28;92422;-78
2023/03/23 00:33:07;;;;;;;;;;;;;;;;;;4994069;28;92722;-78
2023/03/23 00:35:32;;;;;;;3.20;1.50;;;;;;;;;;4992494;28;96816;-78
2023/03/23 00:37:58;;;;;;;4.00;1.52;;;;;;;;;;4963585;28;92457;-78
2023/03/23 00:40:26;;;;;;;4.50;1.60;;;;;;;;;;4969355;28;93207;-79
2023/03/23 00:42:52;;;;;;;6.88;1.70;;;;;;;;;;4975253;28;92355;-79
2023/03/23 00:45:17;;;;;;;6.18;1.50;;;;;;;;;;4959756;28;94740;-78
2023/03/23 00:47:50;;;;;;;4.55;1.60;;;;;;;;;;4976300;28;92867;-78
2023/03/23 00:50:17;;;;;;;5.43;1.58;;;;;;;;;;4947471;28;92473;-78
2023/03/23 00:52:43;;;;;;;6.47;1.70;;;;;;;;;;4973043;28;92380;-78
2023/03/23 00:55:09;;;;;;;4.07;1.98;;;;;;;;;;4966969;28;92804;-78
2023/03/23 00:57:35;;;;;;;4.20;1.52;;;;;;;;;;4993190;28;92548;-78
2023/03/23 01:00:00;;;;;;;4.50;1.48;;;;;;;;;;4981076;28;94734;-78
2023/03/23 01:02:25;;;;;;;9.60;1.50;;;;;;;;;;4963871;28;92882;-78
2023/03/23 01:04:52;;;;;;;4.95;1.80;;;;;;;;;;4979562;28;92281;-78
2023/03/23 01:07:20;;;;;;;5.38;1.40;;;;;;;;;;4994042;28;94967;-79
2023/03/23 01:09:46;;;;;;;3.72;1.45;;;;;;;;;;4977183;28;92612;-78
2023/03/23 01:12:12;;;;;;;3.92;1.50;;;;;;;;;;4979321;28;92925;-77
2023/03/23 01:14:38;;;;;;;5.45;1.40;;;;;;;;;;4962311;28;95515;-77
2023/03/23 01:17:03;;;;;;;4.32;1.40;;;;;;;;;;4963147;28;91671;-77
2023/03/23 01:19:29;;;;;;;3.25;1.52;;;;;;;;;;4982680;28;92676;-78
2023/03/23 01:21:55;;;;;;;3.58;1.42;;;;;;;;;;4978788;28;92536;-78
2023/03/23 01:24:20;;;;;;;4.00;1.50;;;;;;;;;;4961619;28;94865;-78
2023/03/23 01:26:45;;;;;;;4.45;1.52;;;;;;;;;;4978366;28;93398;-77
2023/03/23 01:29:11;;;;;;;4.03;1.30;;;;;;;;;;4995983;28;93728;-77
2023/03/23 01:31:36;;;;;;;3.85;1.45;;;;;;;;;;4978992;28;92628;-78
2023/03/23 01:34:03;;;;;;;5.47;1.67;;;;;;;;;;4962374;28;92845;-77
2023/03/23 01:36:32;;;;;;;3.20;1.33;;;;;;;;;;4978686;28;93564;-77
2023/03/23 01:39:00;;;;;;;4.30;1.35;;;;;;;;;;4960861;28;95883;-76
2023/03/23 01:41:26;;;;;;;3.70;1.45;;;;;;;;;;4953433;28;93687;-77
2023/03/23 01:43:56;;;;;;;2.72;1.30;;;;;;;;;;4962370;28;92569;-78
2023/03/23 01:46:23;;;;;;;4.63;1.83;;;;;;;;;;4994694;28;92963;-78
2023/03/23 01:48:49;;;;;;;4.88;1.40;;;;;;;;;;4959757;28;94805;-77
2023/03/23 01:51:16;;;;;;;4.38;1.40;;;;;;;;;;4994489;28;96721;-77
2023/03/23 01:53:42;;;;;;;;;;;;;;;;;;4963176;28;92672;-78
2023/03/23 01:56:08;;;;;;;;;;;;;;;;;;4950336;28;92582;-78
2023/03/23 01:58:34;;;;;;;3.55;1.30;;;;;;;;;;4997158;28;92664;-77
2023/03/23 02:01:03;;;;;;;3.95;1.70;;;;;;;;;;4994278;28;93067;-77
2023/03/23 02:03:30;;;;;;;3.78;1.40;;;;;;;;;;4963738;28;92581;-78
2023/03/23 02:05:58;;;;;;;4.93;1.67;;;;;;;;;;4988989;28;93902;-78
2023/03/23 02:08:33;;;;;;;2.80;1.30;;;;;;;;;;4979692;28;92115;-77
2023/03/23 02:11:00;;;;;;;2.92;1.25;;;;;;;;;;4994177;28;95373;-77
2023/03/23 02:13:27;;;;;;;4.47;1.52;;;;;;;;;;4960739;28;97193;-78
2023/03/23 02:16:03;;;;;;;2.60;1.45;;;;;;;;;;4994898;28;92788;-77
2023/03/23 02:18:47;;;;;;;4.10;1.50;;;;;;;;;;4993819;28;94285;-78
2023/03/23 02:21:26;;;;;;;2.95;1.30;;;;;;;;;;4960989;28;97186;-78
2023/03/23 02:24:06;;;;;;;2.75;1.40;;;;;;;;;;4978368;28;92578;-78
2023/03/23 02:26:32;;;;;;;3.92;1.35;;;;;;;;;;4981461;28;92477;-78
2023/03/23 02:29:00;;;;;;;3.13;1.50;;;;;;;;;;4978140;28;92626;-78
2023/03/23 02:31:38;;;;;;;3.42;1.58;;;;;;;;;;4968052;28;95010;-77
2023/03/23 02:34:07;;;;;;;3.70;1.48;;;;;;;;;;4994687;28;95170;-78
2023/03/23 02:36:36;;;;;;;3.80;1.23;;;;;;;;;;4979105;28;92366;-78
2023/03/23 02:39:05;;;;;;;2.97;1.20;;;;;;;;;;4963472;28;96751;-78
2023/03/23 02:41:33;;;;;;;4.53;1.45;;;;;;;;;;4994143;28;92340;-78
2023/03/23 02:44:01;;;;;;;4.72;1.85;;;;;;;;;;4961500;28;92901;-78
2023/03/23 02:46:28;;;;;;;3.72;1.50;;;;;;;;;;4977741;28;92987;-78
2023/03/23 02:48:56;;;;;;;3.80;1.40;;;;;;;;;;4980011;28;92618;-77
2023/03/23 02:51:22;;;;;;;4.07;1.52;;;;;;;;;;4961725;28;93273;-78
2023/03/23 02:53:50;;;;;;;5.47;1.60;;;;;;;;;;4961639;28;93069;-79
2023/03/23 02:56:16;;;;;;;3.88;1.50;;;;;;;;;;4961973;28;91816;-78
2023/03/23 02:58:41;;;;;;;9.18;1.80;;;;;;;;;;4945044;28;92646;-79
2023/03/23 03:01:15;;;;;;;9.23;2.20;;;;;;;;;;4961729;28;95045;-79
2023/03/23 03:03:41;;;;;;;5.25;1.63;;;;;;;;;;4959751;28;96080;-78
2023/03/23 03:06:19;;;;;;;16.45;1.83;;;;;;;;;;4960537;28;97580;-78
2023/03/23 03:08:48;;;;;;;11.55;1.70;;;;;;;;;;4959470;28;95563;-78
2023/03/23 03:11:15;;;;;;;8.07;1.70;;;;;;;;;;4967061;28;92266;-78
2023/03/23 03:13:53;;;;;;;6.05;1.75;;;;;;;;;;4978005;28;94367;-77
2023/03/23 03:16:31;;;;;;;5.78;1.55;;;;;;;;;;4978112;28;92597;-78
2023/03/23 03:18:57;;;;;;;3.25;1.50;;;;;;;;;;4979212;28;92360;-78
2023/03/23 03:21:25;;;;;;;4.95;1.60;;;;;;;;;;4960417;28;92804;-79
2023/03/23 03:23:54;;;;;;;9.27;1.83;;;;;;;;;;4994613;28;92910;-79
2023/03/23 03:26:20;;;;;;;3.72;1.77;;;;;;;;;;4961295;28;94596;-80
2023/03/23 03:28:52;;;;;;;6.13;1.70;;;;;;;;;;4968116;28;96625;-79
2023/03/23 03:31:30;;;;;;;4.43;1.30;;;;;;;;;;4980826;28;92252;-79
2023/03/23 03:33:56;;;;;;;5.65;1.55;;;;;;;;;;4977388;28;93290;-79
2023/03/23 03:36:27;;;;;;;4.38;1.45;;;;;;;;;;4961080;28;92550;-79
2023/03/23 03:38:53;;;;;;;3.00;1.40;;;;;;;;;;4976486;28;92393;-79
2023/03/23 03:41:19;;;;;;;5.15;1.40;;;;;;;;;;4952526;28;92648;-79
2023/03/23 03:43:46;;;;;;;2.92;1.20;;;;;;;;;;4961059;28;92430;-79
2023/03/23 03:46:11;;;;;;;5.25;1.42;;;;;;;;;;4994534;28;94839;-79
2023/03/23 03:48:37;;;;;;;3.85;1.30;;;;;;;;;;4976472;28;95476;-78
2023/03/23 03:51:03;;;;;;;4.65;1.45;;;;;;;;;;4976720;28;92479;-78
2023/03/23 03:53:31;;;;;;;6.85;1.52;;;;;;;;;;4978152;28;95473;-77
2023/03/23 03:55:59;;;;;;;3.97;1.60;;;;;;;;;;4992053;28;92699;-79
2023/03/23 03:58:31;;;;;;;3.55;1.20;;;;;;;;;;4983302;28;92576;-78
2023/03/23 04:01:07;;;;;;;2.95;1.30;;;;;;;;;;4994449;28;97064;-78
2023/03/23 04:03:37;;;;;;;2.80;1.20;;;;;;;;;;4959991;28;92528;-78
2023/03/23 04:06:13;;;;;;;3.15;1.15;;;;;;;;;;4961573;28;94240;-77
2023/03/23 04:08:41;;;;;;;2.70;1.23;;;;;;;;;;4975972;28;94844;-77
2023/03/23 04:11:07;;;;;;;4.30;1.40;;;;;;;;;;4944838;28;92030;-77
2023/03/23 04:13:32;;;;;;;3.70;1.40;;;;;;;;;;4976676;28;92755;-77
2023/03/23 04:16:06;;;;;;;3.25;1.40;;;;;;;;;;4964055;28;93307;-77
2023/03/23 04:18:33;;;;;;;3.38;1.13;;;;;;;;;;4974873;28;94816;-77
2023/03/23 04:21:00;;;;;;;3.20;1.05;;;;;;;;;;4959126;28;92736;-77
2023/03/23 04:23:30;;;;;;;4.53;1.30;;;;;;;;;;4976512;28;92388;-78
2023/03/23 04:25:57;;;;;;;2.97;1.25;;;;;;;;;;4976990;28;93358;-78
2023/03/23 04:28:25;;;;;;;3.63;1.30;;;;;;;;;;4993088;28;94293;-77
2023/03/23 04:31:16;;;;;;;3.55;1.30;;;;;;;;;;4976495;28;93049;-78
2023/03/23 04:33:46;;;;;;;4.95;1.20;;;;;;;;;;4960978;28;94430;-78
2023/03/23 04:36:15;;;;;;;3.20;1.20;;;;;;;;;;4993933;28;92681;-78
2023/03/23 04:38:54;;;;;;;2.42;1.20;;;;;;;;;;4963803;28;92429;-78
2023/03/23 04:41:21;;;;;;;3.00;1.05;;;;;;;;;;4976121;28;93852;-79
2023/03/23 04:44:05;;;;;;;3.97;1.23;;;;;;;;;;4974426;28;96776;-77
2023/03/23 04:46:54;;;;;;;2.50;1.15;;;;;;;;;;4954033;28;96297;-79
2023/03/23 04:49:21;;;;;;;3.50;1.35;;;;;;;;;;4946937;28;92987;-78
2023/03/23 04:51:50;;;;;;;3.88;1.40;;;;;;;;;;4983015;28;92383;-78
2023/03/23 04:54:24;;;;;;;3.08;1.10;;;;;;;;;;4947290;28;94857;-79
2023/03/23 04:56:54;;;;;;;3.65;1.13;;;;;;;;;;4959028;28;95179;-79
2023/03/23 04:59:21;;;;;;;2.78;1.00;;;;;;;;;;4975997;28;92711;-79
2023/03/23 05:02:04;;;;;;;4.63;1.23;;;;;;;;;;4965164;28;93264;-79
2023/03/23 05:04:31;;;;;;;3.63;1.17;;;;;;;;;;4959711;28;92842;-79
2023/03/23 05:07:16;;;;;;;4.97;1.10;;;;;;;;;;4967075;28;96360;-78
2023/03/23 05:09:48;;;;;;;7.65;1.13;;;;;;;;;;4945143;28;95101;-79
2023/03/23 05:12:16;;;;;;;7.43;1.45;;;;;;;;;;4959560;28;92282;-78
2023/03/23 05:14:57;;;;;;;7.07;1.45;;;;;;;;;;4961412;28;94777;-78
2023/03/23 05:17:25;;;;;;;6.63;1.40;;;;;;;;;;4963098;28;92409;-78
2023/03/23 05:19:56;;;;;;;6.57;1.35;;;;;;;;;;4975943;28;92408;-78
2023/03/23 05:22:38;;;;;;;7.60;1.40;;;;;;;;;;4991181;28;95044;-78
2023/03/23 05:25:06;;;;;;;7.53;1.50;;;;;;;;;;4975742;28;92494;-78
2023/03/23 05:27:34;;;;;;;7.45;1.35;;;;;;;;;;4976287;28;94638;-78
2023/03/23 05:30:09;;;;;;;6.07;1.33;;;;;;;;;;4975621;28;94526;-78
2023/03/23 05:32:38;;;;;;;3.88;1.10;;;;;;;;;;4992576;28;92177;-79
2023/03/23 05:35:20;;;;;;;7.25;1.40;;;;;;;;;;4989270;28;94639;-79
2023/03/23 05:37:46;;;;;;;5.07;1.40;;;;;;;;;;4975916;28;92711;-79
2023/03/23 05:40:12;;;;;;;5.57;1.48;;;;;;;;;;4992118;28;93387;-77
2023/03/23 05:42:45;;;;;;;6.57;1.60;;;;;;;;;;4965839;28;94212;-77
2023/03/23 05:45:18;;;;;;;5.82;1.42;;;;;;;;;;4980853;28;92477;-79
2023/03/23 05:47:45;;;;;;;6.13;1.40;;;;;;;;;;4988726;28;93872;-78
2023/03/23 05:50:17;;;;;;;4.63;1.33;;;;;;;;;;4959172;28;92778;-78
2023/03/23 05:52:43;;;;;;;5.13;1.40;;;;;;;;;;4962493;28;91722;-79
2023/03/23 05:55:11;;;;;;;5.03;1.35;;;;;;;;;;4978911;28;93571;-79
2023/03/23 05:57:39;;;;;;;5.45;1.42;;;;;;;;;;4979298;28;92785;-78
2023/03/23 06:00:22;;;;;;;4.95;1.20;;;;;;;;;;5010557;28;95042;-78
2023/03/23 06:02:54;;;;;;;5.28;1.30;;;;;;;;;;4973895;28;97877;-79
2023/03/23 06:05:26;;;;;;;5.97;1.52;;;;;;;;;;4994178;28;95465;-78
2023/03/23 06:07:53;;;;;;;;;;;;;;;;;;4966206;28;92355;-78
2023/03/23 06:10:19;;;;;;;4.57;1.20;;;;;;;;;;5012783;28;95226;-79
2023/03/23 06:12:52;;;;;;;6.80;1.52;;;;;;;;;;4979458;28;92403;-79
2023/03/23 06:15:33;;;;;;;5.95;1.40;;;;;;;;;;4964017;28;95157;-79
2023/03/23 06:17:59;;;;;;;11.00;1.55;;;;;;;;;;4972535;28;92235;-78
2023/03/23 06:20:30;;;;;;;4.18;1.20;;;;;;;;;;4976913;28;92584;-79
2023/03/23 06:22:58;;;;;;;5.78;1.40;;;;;;;;;;4994062;28;94391;-77
2023/03/23 06:25:28;;;;;;;5.72;1.30;;;;;;;;;;4975565;28;97722;-78
2023/03/23 06:27:55;;;;;;;;;;;;;;;;;;4977823;28;92458;-77
2023/03/23 06:30:20;;;;;;;5.93;1.47;;;;;;;;;;4981803;28;94079;-79
2023/03/23 06:32:47;;;;;;;3.97;1.30;;;;;;;;;;4978739;28;92591;-79
2023/03/23 06:35:13;;;;;;;3.88;1.20;;;;;;;;;;4977562;28;94059;-79
2023/03/23 06:38:01;;;;;;;7.30;1.60;;;;;;;;;;4977926;28;92333;-79
2023/03/23 06:40:46;;;;;;;5.22;1.52;;;;;;;;;;4962403;28;92560;-79
2023/03/23 06:43:13;;;;;;;6.57;1.60;;;;;;;;;;4960358;28;94445;-78
2023/03/23 06:46:04;;;;;;;;;;;;;;;;;;4976477;28;94028;-79
2023/03/23 06:48:39;;;;;;;5.00;1.38;;;;;;;;;;4978351;28;92240;-78
2023/03/23 06:51:05;;;;;;;5.15;1.35;;;;;;;;;;4959146;28;94763;-78
2023/03/23 06:53:32;;;;;;;6.90;1.60;;;;;;;;;;4947898;28;95844;-78
2023/03/23 06:55:59;;;;;;;5.07;1.27;;;;;;;;;;4960558;28;95239;-78
2023/03/23 06:58:25;;;;;;;5.35;1.33;;;;;;;;;;4976650;28;95263;-77
2023/03/23 07:00:56;;;;;;;6.43;1.30;;;;;;;;;;4974578;28;92486;-78
2023/03/23 07:03:27;;;;;;;9.20;1.58;;;;;;;;;;4976304;28;92428;-78
2023/03/23 07:05:53;;;;;;;7.68;1.30;;;;;;;;;;4960014;28;95520;-79
2023/03/23 07:08:21;;;;;;;3.83;1.35;;;;;;;;;;4977371;28;91832;-78
2023/03/23 07:10:52;;;;;;;6.53;1.63;;;;;;;;;;4992839;28;94431;-78
2023/03/23 07:13:21;;;;;;;6.15;1.40;;;;;;;;;;4947077;28;94016;-78
2023/03/23 07:15:51;;;;;;;6.07;1.20;;;;;;;;;;4962613;28;94982;-78
2023/03/23 07:18:17;;;;;;;4.85;1.30;;;;;;;;;;4960809;28;93539;-78
2023/03/23 07:20:49;;;;;;;4.28;1.20;;;;;;;;;;4959864;28;92692;-79
2023/03/23 07:23:16;;;;;;;7.05;1.60;;;;;;;;;;4976333;28;95683;-79
2023/03/23 07:25:48;;;;;;;6.18;1.38;;;;;;;;;;4999971;28;95511;-79
2023/03/23 07:28:18;;;;;;;4.28;1.10;;;;;;;;;;4990870;28;92369;-79
2023/03/23 07:30:45;;;;;;;4.00;1.08;;;;;;;;;;4975513;28;93017;-80
2023/03/23 07:33:11;;;;;;;4.93;1.30;;;;;;;;;;4961263;28;94960;-80
2023/03/23 07:35:37;;;;;;;7.85;1.50;;;;;;;;;;4980093;28;92256;-80
2023/03/23 07:38:06;;;;;;;6.55;1.40;;;;;;;;;;4960635;28;95242;-79
2023/03/23 07:40:33;;;;;;;6.70;1.30;;;;;;;;;;4957999;28;95341;-79
2023/03/23 07:43:04;;;;;;;5.65;1.40;;;;;;;;;;5001590;28;100783;-79
2023/03/23 07:45:56;;;;;;;;;;;;;;;;;;4976335;28;93279;-79
2023/03/23 07:48:24;;;;;;;4.20;1.20;;;;;;;;;;4961237;28;92487;-79
2023/03/23 07:50:51;;;;;;;4.57;1.10;;;;;;;;;;4975199;28;92662;-79
2023/03/23 07:53:18;;;;;;;3.83;1.23;;;;;;;;;;4959826;28;93503;-79
2023/03/23 07:55:52;;;;;;;4.70;1.10;;;;;;;;;;4978080;28;92493;-79
2023/03/23 07:58:48;;;;;;;6.38;1.10;;;;;;;;;;4979269;28;95143;-79
2023/03/23 08:01:14;;;;;;;5.15;1.23;;;;;;;;;;4976174;28;93596;-78
2023/03/23 08:03:42;;;;;;;4.43;1.40;;;;;;;;;;4960010;28;92773;-78
2023/03/23 08:06:39;;;;;;;5.85;1.48;;;;;;;;;;4958063;28;95187;-79
2023/03/23 08:09:26;;;;;;;6.82;1.40;;;;;;;;;;4939744;28;92474;-77
2023/03/23 08:12:11;;;;;;;8.02;1.30;;;;;;;;;;4935017;28;94521;-80
2023/03/23 08:14:54;;;;;;;4.85;1.30;;;;;;;;;;4988676;28;93229;-79
2023/03/23 08:17:40;;;;;;;5.82;1.30;;;;;;;;;;4973014;28;92498;-79
2023/03/23 08:20:25;;;;;;;5.18;1.30;;;;;;;;;;4975793;28;99933;-79
2023/03/23 08:22:55;;;;;;;4.88;1.27;;;;;;;;;;4958934;28;92858;-79
2023/03/23 08:25:39;;;;;;;4.90;1.20;;;;;;;;;;4955915;28;92006;-79
2023/03/23 08:28:20;;;;;;;7.00;1.25;;;;;;;;;;4958111;28;92645;-78
2023/03/23 08:31:09;;;;;;;5.57;1.50;;;;;;;;;;4975883;28;92973;-78
2023/03/23 08:34:07;;;;;;;7.07;1.20;;;;;;;;;;4932753;28;95256;-78
2023/03/23 08:36:37;;;;;;;5.20;1.58;;;;;;;;;;4991595;28;92633;-79
2023/03/23 08:39:15;;;;;;;4.95;1.10;;;;;;;;;;4962688;28;93970;-79
2023/03/23 08:41:53;;;;;;;5.88;1.48;;;;;;;;;;4975286;28;92538;-79
2023/03/23 08:44:37;;;;;;;4.68;1.38;;;;;;;;;;4975221;28;94611;-80
2023/03/23 08:47:21;;;;;;;5.18;1.40;;;;;;;;;;4977686;28;92426;-78
2023/03/23 08:50:14;;;;;;;8.27;1.42;;;;;;;;;;4975347;28;93019;-79
2023/03/23 08:52:54;;;;;;;4.25;1.30;;;;;;;;;;4964788;28;91508;-78
2023/03/23 08:55:44;;;;;;;5.22;1.27;;;;;;;;;;4941284;28;92434;-80
2023/03/23 08:58:25;;;;;;;5.40;1.20;;;;;;;;;;4960649;28;93101;-78
2023/03/23 09:01:15;;;;;;;6.45;1.30;;;;;;;;;;4958425;28;95603;-77
2023/03/23 09:04:04;;;;;;;4.10;1.10;;;;;;;;;;4966646;28;94992;-80
2023/03/23 09:06:58;;;;;;;4.35;1.08;;;;;;;;;;4941635;28;93671;-78
2023/03/23 09:09:24;;;;;;;3.88;1.30;;;;;;;;;;4964401;28;92244;-78
2023/03/23 09:11:49;;;;;;;5.55;1.58;;;;;;;;;;4978951;28;94216;-79
2023/03/23 09:14:15;;;;;;;3.25;1.02;;;;;;;;;;4957691;28;92661;-78
2023/03/23 09:16:40;;;;;;;4.45;1.20;;;;;;;;;;4974795;28;93090;-78
2023/03/23 09:19:08;;;;;;;2.42;1.00;;;;;;;;;;4964876;28;94543;-78
2023/03/23 09:21:33;;;;;;;4.93;1.40;;;;;;;;;;4978194;28;92362;-78
2023/03/23 09:24:01;;;;;;;3.58;1.10;;;;;;;;;;4971559;28;92649;-78
2023/03/23 09:26:27;;;;;;;5.00;1.20;;;;;;;;;;4954974;28;95905;-78
2023/03/23 09:28:52;;;;;;;5.00;1.40;;;;;;;;;;4979333;28;92501;-78
2023/03/23 09:31:20;;;;;;;4.93;1.17;;;;;;;;;;4978700;28;92362;-78
2023/03/23 09:33:46;;;;;;;3.88;1.30;;;;;;;;;;4981176;28;92736;-79
2023/03/23 09:36:13;;;;;;;5.35;1.35;;;;;;;;;;4978665;28;94574;-78
2023/03/23 09:38:41;;;;;;;5.38;1.27;;;;;;;;;;4979021;28;93267;-78
2023/03/23 09:41:12;;;;;;;3.67;1.23;;;;;;;;;;4973360;28;92802;-79
2023/03/23 09:43:45;;;;;;;6.32;1.40;;;;;;;;;;4973845;28;94146;-79
2023/03/23 09:46:22;;;;;;;5.10;1.50;;;;;;;;;;4994150;28;92528;-79
2023/03/23 09:48:50;;;;;;;4.20;1.20;;;;;;;;;;4955891;28;92236;-80
2023/03/23 09:51:16;;;;;;;5.03;1.40;;;;;;;;;;4963112;28;94718;-80
2023/03/23 09:53:44;;;;;;;4.63;1.60;;;;;;;;;;4994530;28;93032;-79
2023/03/23 09:56:14;;;;;;;8.80;1.60;;;;;;;;;;4977812;28;92678;-78
2023/03/23 09:58:39;;;;;;;3.47;1.20;;;;;;;;;;4945400;28;93350;-78
2023/03/23 10:01:08;;;;;;;5.28;1.50;;;;;;;;;;5000195;28;93590;-79
2023/03/23 10:03:44;;;;;;;5.65;1.40;;;;;;;;;;4976786;28;92373;-80
2023/03/23 10:06:10;;;;;;;5.28;1.60;;;;;;;;;;4959392;28;93549;-79
2023/03/23 10:08:37;;;;;;;4.90;1.55;;;;;;;;;;4974464;28;91787;-80
2023/03/23 10:11:04;;;;;;;4.05;1.20;;;;;;;;;;4980405;28;99050;-81
2023/03/23 10:13:33;;;;;;;4.25;1.20;;;;;;;;;;4959985;28;95092;-79
2023/03/23 10:15:58;;;;;;;3.20;1.25;;;;;;;;;;4975871;28;95195;-79
2023/03/23 10:18:29;;;;;;;6.70;1.40;;;;;;;;;;4957205;28;92939;-79
2023/03/23 10:20:56;;;;;;;5.68;1.52;;;;;;;;;;4958413;28;92354;-79
2023/03/23 10:23:36;;;;;;;5.18;1.67;;;;;;;;;;4977707;28;94922;-80
2023/03/23 10:26:07;;;;;;;3.67;1.45;;;;;;;;;;4975445;28;94143;-80
2023/03/23 10:28:48;;;;;;;4.38;1.20;;;;;;;;;;4980801;28;92545;-80
2023/03/23 10:31:18;;;;;;;4.43;1.30;;;;;;;;;;4965701;28;97067;-78
2023/03/23 10:33:44;;;;;;;5.75;1.63;;;;;;;;;;4960891;28;94747;-79
2023/03/23 10:36:16;;;;;;;4.70;1.33;;;;;;;;;;4977112;28;92496;-79
2023/03/23 10:38:53;;;;;;;6.00;1.40;;;;;;;;;;4969306;28;94981;-80
2023/03/23 10:41:19;;;;;;;5.03;1.30;;;;;;;;;;4969429;28;94839;-80
2023/03/23 10:43:49;;;;;;;4.60;1.40;;;;;;;;;;4976781;28;94565;-79
2023/03/23 10:46:33;;;;;;;5.60;1.67;;;;;;;;;;4977213;28;92557;-79
2023/03/23 10:49:00;;;;;;;4.80;1.30;;;;;;;;;;4959667;28;92590;-80
2023/03/23 10:51:36;;;;;;;5.38;1.40;;;;;;;;;;4957433;28;93711;-78
2023/03/23 10:54:04;;;;;;;3.42;1.30;;;;;;;;;;4953518;28;95028;-77
2023/03/23 10:56:37;;;;;;;4.97;1.45;;;;;;;;;;4971681;28;92775;-81
2023/03/23 10:59:03;;;;;;;;;;;;;;;;;;4977472;28;97027;-82
2023/03/23 11:01:33;;;;;;;4.93;1.60;;;;;;;;;;4967658;28;94919;-83
2023/03/23 11:04:00;;;;;;;5.38;1.48;;;;;;;;;;4958105;28;95184;-83
2023/03/23 11:06:30;;;;;;;5.13;1.42;;;;;;;;;;4967188;28;95030;-83
2023/03/23 11:08:58;;;;;;;4.20;1.30;;;;;;;;;;4969402;28;93071;-80
2023/03/23 11:11:30;;;;;;;3.45;1.05;;;;;;;;;;4957427;28;92698;-80
2023/03/23 11:14:16;;;;;;;4.13;1.38;;;;;;;;;;4956356;28;95030;-79
2023/03/23 11:16:44;;;;;;;3.40;1.30;;;;;;;;;;4958472;28;92841;-79
2023/03/23 11:19:14;;;;;;;7.35;1.40;;;;;;;;;;4957357;28;93668;-81
2023/03/23 11:21:39;;;;;;;5.50;1.40;;;;;;;;;;4954604;28;94915;-82
2023/03/23 11:24:05;;;;;;;11.60;1.77;;;;;;;;;;4954452;28;91863;-80
2023/03/23 11:26:33;;;;;;;8.00;1.45;;;;;;;;;;4991058;28;93123;-82
2023/03/23 11:29:04;;;;;;;5.15;1.27;;;;;;;;;;4962045;28;92161;-82
2023/03/23 11:31:39;;;;;;;5.43;1.35;;;;;;;;;;4960501;28;94771;-83
2023/03/23 11:34:10;;;;;;;5.57;1.38;;;;;;;;;;4977037;28;92818;-81
2023/03/23 11:36:41;;;;;;;6.35;1.30;;;;;;;;;;4968646;28;92828;-81
2023/03/23 11:39:21;;;;;;;4.30;1.17;;;;;;;;;;4985275;28;99535;-80
2023/03/23 11:41:47;;;;;;;5.70;1.48;;;;;;;;;;4951750;28;95218;-82
2023/03/23 11:44:13;;;;;;;3.45;1.00;;;;;;;;;;4979285;28;92230;-82
2023/03/23 11:46:57;;;;;;;4.38;1.10;;;;;;;;;;4986276;28;92857;-83
2023/03/23 11:49:37;;;;;;;6.05;1.55;;;;;;;;;;4969125;28;92109;-80
2023/03/23 11:52:13;;;;;;;5.60;1.30;;;;;;;;;;4959468;28;93529;-81
2023/03/23 11:54:43;;;;;;;6.50;1.15;;;;;;;;;;4991905;28;95968;-80
2023/03/23 11:57:10;;;;;;;6.88;1.35;;;;;;;;;;4954579;28;94825;-80
2023/03/23 11:59:36;;;;;;;4.10;1.35;;;;;;;;;;4957220;28;95152;-81
2023/03/23 12:02:20;;;;;;;5.85;1.20;;;;;;;;;;4970233;28;92802;-82
2023/03/23 12:05:05;;;;;;;4.70;1.15;;;;;;;;;;4972851;28;92441;-82
2023/03/23 12:07:41;;;;;;;4.90;1.35;;;;;;;;;;4976251;28;95882;-81
2023/03/23 12:10:19;;;;;;;6.65;1.48;;;;;;;;;;4972994;28;92299;-80
2023/03/23 12:13:03;;;;;;;7.97;1.40;;;;;;;;;;4975128;28;92425;-79
2023/03/23 12:15:42;;;;;;;3.70;1.20;;;;;;;;;;4959995;28;93697;-80
2023/03/23 12:18:10;;;;;;;4.03;1.13;;;;;;;;;;4976160;28;92739;-80
2023/03/23 12:20:54;;;;;;;6.45;1.50;;;;;;;;;;4975223;28;92687;-79
2023/03/23 12:23:22;;;;;;;4.93;1.30;;;;;;;;;;4969514;28;101098;-81
2023/03/23 12:26:07;;;;;;;3.97;1.20;;;;;;;;;;4973989;28;92506;-81
2023/03/23 12:28:51;;;;;;;8.55;1.60;;;;;;;;;;4966239;28;94122;-81
2023/03/23 12:31:36;;;;;;;7.13;1.30;;;;;;;;;;4979104;28;97002;-81
2023/03/23 12:34:20;;;;;;;6.15;1.40;;;;;;;;;;4974207;28;92659;-81
2023/03/23 12:37:00;;;;;;;7.15;1.60;;;;;;;;;;4986970;28;94325;-80
2023/03/23 12:39:45;;;;;;;6.45;1.50;;;;;;;;;;4975770;28;92778;-81
2023/03/23 12:42:36;;;;;;;7.43;1.67;;;;;;;;;;4967580;28;94566;-82
2023/03/23 12:45:12;;;;;;;6.13;1.20;;;;;;;;;;4972890;28;98271;-79
2023/03/23 12:47:48;;;;;;;8.02;1.52;;;;;;;;;;4961249;28;93750;-80
2023/03/23 12:50:17;;;;;;;6.88;1.42;;;;;;;;;;4974095;28;95120;-80
2023/03/23 12:52:51;;;;;;;5.55;1.45;;;;;;;;;;4973990;28;92832;-80
2023/03/23 12:55:26;;;;;;;4.68;1.30;;;;;;;;;;4991225;28;92315;-80
2023/03/23 12:57:59;;;;;;;6.22;1.45;;;;;;;;;;4965159;28;94558;-80
2023/03/23 13:00:27;;;;;;;4.95;1.30;;;;;;;;;;4998097;28;92329;-80
2023/03/23 13:02:57;;;;;;;6.43;1.50;;;;;;;;;;4980449;28;93365;-82
2023/03/23 13:05:26;;;;;;;5.60;1.35;;;;;;;;;;4980900;28;94796;-80
2023/03/23 13:08:12;;;;;;;4.72;1.15;;;;;;;;;;4984303;28;91814;-79
2023/03/23 13:10:40;;;;;;;4.32;1.42;;;;;;;;;;4981923;28;93979;-81
2023/03/23 13:13:10;;;;;;;4.88;1.50;;;;;;;;;;4965380;28;94584;-82
2023/03/23 13:15:44;;;;;;;5.20;1.30;;;;;;;;;;4981502;28;94753;-80
2023/03/23 13:18:12;;;;;;;5.05;1.50;;;;;;;;;;4972937;28;94761;-81
2023/03/23 13:20:56;;;;;;;5.55;1.42;;;;;;;;;;4962433;28;92855;-79
2023/03/23 13:23:25;;;;;;;4.60;1.48;;;;;;;;;;4975208;28;92458;-82
2023/03/23 13:25:57;;;;;;;5.60;1.42;;;;;;;;;;4971089;28;92869;-82
2023/03/23 13:28:26;;;;;;;6.70;1.38;;;;;;;;;;4947750;28;92532;-82
2023/03/23 13:31:14;;;;;;;6.28;1.67;;;;;;;;;;4947870;28;92885;-83
2023/03/23 13:33:45;;;;;;;4.30;1.20;;;;;;;;;;4960247;28;93328;-82
2023/03/23 13:36:12;;;;;;;4.18;1.27;;;;;;;;;;4967602;28;92274;-82
2023/03/23 13:38:38;;;;;;;4.40;1.50;;;;;;;;;;4955148;28;94464;-82
2023/03/23 13:41:13;;;;;;;7.63;1.60;;;;;;;;;;4959141;28;95100;-84
2023/03/23 13:43:40;;;;;;;5.00;1.48;;;;;;;;;;4953106;28;97198;-83
2023/03/23 13:46:10;;;;;;;15.20;1.58;;;;;;;;;;4968872;28;94959;-82
2023/03/23 13:48:43;;;;;;;6.72;1.48;;;;;;;;;;4979539;28;92389;-82
2023/03/23 13:51:28;;;;;;;7.13;1.55;;;;;;;;;;4993336;28;97988;-81
2023/03/23 13:54:03;;;;;;;7.45;1.75;;;;;;;;;;4984822;28;92585;-84
2023/03/23 13:56:47;;;;;;;9.57;1.63;;;;;;;;;;4968769;28;92169;-82
2023/03/23 13:59:14;;;;;;;8.77;1.55;;;;;;;;;;4966101;28;96962;-83
2023/03/23 14:01:41;;;;;;;8.60;1.50;;;;;;;;;;4968739;28;94498;-80
2023/03/23 14:04:13;;;;;;;11.40;1.77;;;;;;;;;;4985887;28;92209;-81
2023/03/23 14:06:38;;;;;;;6.63;1.42;;;;;;;;;;4962374;28;95282;-81
2023/03/23 14:09:12;;;;;;;6.93;1.30;;;;;;;;;;4961625;28;92512;-85
2023/03/23 14:12:10;;;;;;;5.80;1.35;;;;;;;;;;4984209;28;94988;-85
2023/03/23 14:14:40;;;;;;;9.77;1.55;;;;;;;;;;4972431;28;97493;-86
2023/03/23 14:17:14;;;;;;;5.88;1.63;;;;;;;;;;4983111;28;92920;-85
2023/03/23 14:19:41;;;;;;;5.82;1.27;;;;;;;;;;4975549;28;93302;-82
2023/03/23 14:22:22;;;;;;;6.15;1.10;;;;;;;;;;4958404;28;94830;-80
2023/03/23 14:24:47;;;;;;;5.15;1.30;;;;;;;;;;4980063;28;91974;-80
2023/03/23 14:27:16;;;;;;;5.65;1.50;;;;;;;;;;4972930;28;94760;-79
2023/03/23 14:29:42;;;;;;;14.15;1.33;;;;;;;;;;4973968;28;92331;-81
2023/03/23 14:32:10;;;;;;;10.25;1.70;;;;;;;;;;4971119;28;95449;-78
2023/03/23 14:34:35;;;;;;;5.68;1.50;;;;;;;;;;4952395;28;98128;-80
2023/03/23 14:37:01;;;;;;;7.25;1.40;;;;;;;;;;4975810;28;92761;-79
2023/03/23 14:39:31;;;;;;;9.77;1.40;;;;;;;;;;4968488;28;92490;-79
2023/03/23 14:42:13;;;;;;;6.20;1.33;;;;;;;;;;4949114;28;95736;-78
2023/03/23 14:44:43;;;;;;;7.05;1.48;;;;;;;;;;4959501;28;92616;-79
2023/03/23 14:47:30;;;;;;;5.20;1.25;;;;;;;;;;4972260;28;92338;-81
2023/03/23 14:49:57;;;;;;;5.07;1.13;;;;;;;;;;4975567;28;91574;-78
2023/03/23 14:52:24;;;;;;;4.13;1.33;;;;;;;;;;4969962;28;93547;-78
2023/03/23 14:54:50;;;;;;;6.25;1.25;;;;;;;;;;4976234;28;94919;-79
2023/03/23 14:57:20;;;;;;;6.95;1.33;;;;;;;;;;4971283;28;94638;-78
2023/03/23 14:59:46;;;;;;;3.58;1.10;;;;;;;;;;4975152;28;94776;-78
2023/03/23 15:02:20;;;;;;;5.03;1.48;;;;;;;;;;4956262;28;92813;-79
2023/03/23 15:04:48;;;;;;;4.93;1.30;;;;;;;;;;4972621;28;92666;-78
2023/03/23 15:07:15;;;;;;;5.25;1.30;;;;;;;;;;4974459;28;93217;-78
2023/03/23 15:09:42;;;;;;;3.72;1.00;;;;;;;;;;4979132;28;92655;-78
2023/03/23 15:12:12;;;;;;;3.78;1.00;;;;;;;;;;4956371;28;94566;-78